»·PEaware :: N6262K KTOA-KSBP

N6262K :: KTOA-KSBP

FLIGHT INFORMATION

Flight Status: Arrived
Operator: Privately registered:
United States
More flights under this callsign
Pilot: Judson K. (15650)
Aircraft: MITSUBISHI MU-2 MARQUISE
(MU2)
More flights by this aircraft type
Origin: KTOA Zamperini
United States
Destination: KSBP San Luis Co Regl
United States
More flights between these airports :: More routes between these airports
Route: +LIMBO V64 LAX V299 VTU V25 RZS MQO
File this flight plan on PilotEdge
Remarks:
Altitude:
(Current/Filed)
21,000ft
Speed:
(Current/Filed)
240kts
Departed: 27-Dec-17 04:50 PM
Arrived: 27-Dec-17 05:38 PM
Distance/Time
Traveled:
143nm/0:48
Distance/Time
To Go:
Arrived

Flight Plot

Page will automatically refresh every two minutes.


Map Options




Map Legend


Flown Route
Filed Route
Departure Airport
Arrival Airport
Navaid (VOR, NDB)
Fix

Horizontal Profiles

Position Reports

Time Latitude Longitude Heading Altitude Ground
Speed
27-Dec-17 16:21 33.801601 -118.341420 218 105ft 0kts
27-Dec-17 16:22 33.801601 -118.341420 218 105ft 0kts
27-Dec-17 16:23 33.801601 -118.341420 218 105ft 0kts
27-Dec-17 16:24 33.801601 -118.341420 218 105ft 0kts
27-Dec-17 16:25 33.801601 -118.341420 218 105ft 0kts
27-Dec-17 16:26 33.801601 -118.341420 218 105ft 0kts
27-Dec-17 16:27 33.801601 -118.341420 218 105ft 0kts
27-Dec-17 16:28 33.801601 -118.341420 218 105ft 0kts
27-Dec-17 16:29 33.801601 -118.341420 218 105ft 0kts
27-Dec-17 16:30 33.801600 -118.341420 218 105ft 0kts
27-Dec-17 16:31 33.801601 -118.341420 218 105ft 0kts
27-Dec-17 16:32 33.801601 -118.341420 218 105ft 0kts
27-Dec-17 16:33 33.801601 -118.341420 218 105ft 0kts
27-Dec-17 16:34 33.801601 -118.341420 218 105ft 0kts
27-Dec-17 16:35 33.801601 -118.341420 218 105ft 0kts
27-Dec-17 16:36 33.801601 -118.341420 218 105ft 0kts
27-Dec-17 16:37 33.801601 -118.341420 218 105ft 0kts
27-Dec-17 16:38 33.801601 -118.341420 218 105ft 0kts
27-Dec-17 16:39 33.801601 -118.341420 218 105ft 0kts
27-Dec-17 16:40 33.801601 -118.341420 218 105ft 0kts
27-Dec-17 16:41 33.801601 -118.341420 218 105ft 0kts
27-Dec-17 16:42 33.801601 -118.341420 218 105ft 0kts
27-Dec-17 16:43 33.801601 -118.341420 218 105ft 0kts
27-Dec-17 16:44 33.801601 -118.341420 218 105ft 0kts
27-Dec-17 16:45 33.801601 -118.341420 218 105ft 0kts
27-Dec-17 16:46 33.801601 -118.341420 218 105ft 0kts
27-Dec-17 16:47 33.801601 -118.341420 218 105ft 0kts
27-Dec-17 16:48 33.801601 -118.341420 218 105ft 0kts
27-Dec-17 16:49 33.801601 -118.341420 218 105ft 0kts
27-Dec-17 16:50 33.801601 -118.341420 218 105ft 0kts
27-Dec-17 16:51 33.801058 -118.340865 129 106ft 13kts
27-Dec-17 16:52 33.799740 -118.337073 130 104ft 22kts
27-Dec-17 16:53 33.799144 -118.333241 36 100ft 0kts
27-Dec-17 16:54 33.799144 -118.333241 36 100ft 0kts
27-Dec-17 16:55 33.799699 -118.333058 310 99ft 0kts
27-Dec-17 16:56 33.813644 -118.352455 310 657ft 154kts
27-Dec-17 16:57 33.840603 -118.391211 297 2969ft 169kts
27-Dec-17 16:58 33.810664 -118.444383 193 4250ft 225kts
27-Dec-17 16:59 33.794340 -118.390244 39 6013ft 262kts
27-Dec-17 17:00 33.855403 -118.339604 32 5998ft 258kts
27-Dec-17 17:01 33.911709 -118.294202 22 5995ft 237kts
27-Dec-17 17:02 33.942455 -118.340448 272 6008ft 215kts
27-Dec-17 17:03 33.946370 -118.410851 274 6006ft 213kts
27-Dec-17 17:04 33.951339 -118.482138 282 6003ft 212kts
27-Dec-17 17:05 33.970751 -118.548872 289 6006ft 212kts
27-Dec-17 17:06 33.991353 -118.615243 289 5996ft 212kts
27-Dec-17 17:07 34.012071 -118.681968 290 6000ft 235kts
27-Dec-17 17:08 34.036691 -118.764708 288 5986ft 278kts
27-Dec-17 17:09 34.059816 -118.849448 288 6204ft 234kts
27-Dec-17 17:10 34.078761 -118.917816 287 7687ft 215kts
27-Dec-17 17:11 34.099375 -118.992844 287 8363ft 245kts
27-Dec-17 17:12 34.118404 -119.059441 299 10945ft 192kts
27-Dec-17 17:13 34.146464 -119.107455 312 13237ft 175kts
27-Dec-17 17:14 34.178039 -119.156617 309 14920ft 196kts
27-Dec-17 17:15 34.209961 -119.212203 303 16667ft 208kts
27-Dec-17 17:16 34.241684 -119.269904 299 18701ft 202kts
27-Dec-17 17:17 34.271239 -119.324868 301 20738ft 193kts
27-Dec-17 17:18 34.301112 -119.380310 305 22127ft 219kts
27-Dec-17 17:19 34.339859 -119.452177 304 22132ft 283kts
27-Dec-17 17:20 34.384544 -119.535983 304 22128ft 307kts
27-Dec-17 17:21 34.431738 -119.624172 304 22124ft 314kts
27-Dec-17 17:22 34.478699 -119.713521 304 22125ft 316kts
27-Dec-17 17:23 34.526431 -119.802418 311 22109ft 316kts
27-Dec-17 17:24 34.590012 -119.875329 314 22123ft 315kts
27-Dec-17 17:25 34.649826 -119.952642 313 22150ft 314kts
27-Dec-17 17:26 34.708609 -120.030312 313 22150ft 314kts
27-Dec-17 17:27 34.767471 -120.108481 313 22149ft 314kts
27-Dec-17 17:28 34.826370 -120.186793 313 22152ft 313kts
27-Dec-17 17:29 34.884850 -120.265054 313 22149ft 314kts
27-Dec-17 17:30 34.943189 -120.343100 313 22148ft 313kts
27-Dec-17 17:31 35.000410 -120.419718 313 19481ft 302kts
27-Dec-17 17:32 35.055749 -120.494133 313 16894ft 292kts
27-Dec-17 17:33 35.106702 -120.562349 314 14792ft 272kts
27-Dec-17 17:34 35.156861 -120.629424 313 12451ft 263kts
27-Dec-17 17:35 35.204545 -120.694735 312 10228ft 256kts
27-Dec-17 17:36 35.250063 -120.756769 313 8634ft 235kts
27-Dec-17 17:37 35.251803 -120.816281 213 6882ft 254kts
27-Dec-17 17:38 35.196715 -120.763072 113 5037ft 246kts
27-Dec-17 17:39 35.171369 -120.696170 113 4971ft 191kts
27-Dec-17 17:40 35.153113 -120.648502 113 4203ft 184kts
27-Dec-17 17:41 35.180514 -120.593225 17 2228ft 173kts
27-Dec-17 17:42 35.213970 -120.600958 313 964ft 134kts
27-Dec-17 17:43 35.232992 -120.633350 306 231ft 112kts
27-Dec-17 17:44 35.242562 -120.649147 36 153ft 0kts
27-Dec-17 17:45 35.242628 -120.648355 123 157ft 11kts
27-Dec-17 17:46 35.241050 -120.645620 124 168ft 16kts
27-Dec-17 17:47 35.238159 -120.640705 123 188ft 15kts
27-Dec-17 17:48 35.238587 -120.638879 346 195ft 6kts
27-Dec-17 17:49 35.238675 -120.639163 267 193ft 0kts
27-Dec-17 17:50 35.238675 -120.639163 267 193ft 0kts
27-Dec-17 17:51 35.238675 -120.639163 267 193ft 0kts
27-Dec-17 17:52 35.238675 -120.639163 267 193ft 0kts
27-Dec-17 17:53 35.238675 -120.639163 267 193ft 0kts
27-Dec-17 17:54 35.238675 -120.639163 267 193ft 0kts
27-Dec-17 17:55 35.238675 -120.639163 267 193ft 0kts
27-Dec-17 17:56 35.238675 -120.639163 267 193ft 0kts
27-Dec-17 17:57 35.238675 -120.639163 267 193ft 0kts
27-Dec-17 17:58 35.238675 -120.639163 267 193ft 0kts

Navigation Log

Ident Type
1. KTOA Airport
2. LIMBO Fix
3. LAX Navaid
4. SADDE Fix
5. VTU Navaid
6. DEANO Fix
7. ZIQOR Fix
8. RZS Navaid
9. MQO Navaid
10. KSBP Airport